Time;durP1;ratioP1;P1;durP2;ratioP2;P2;SDS_P1;SDS_P2;PMS_P1;PMS_P2;Temp;Humidity;BMP_temperature;BMP_pressure;BME280_temperature;BME280_humidity;BME280_pressure;Samples;Min_cycle;Max_cycle;Signal;HPM_P1;HPM_P2
2022/06/23 00:00:31;;;;;;;12.77;4.05;;;;;;;;;;5028283;28;20067;-36
2022/06/23 00:02:57;;;;;;;10.00;4.25;;;;;;;;;;5030425;28;20023;-36
2022/06/23 00:05:24;;;;;;;16.00;3.38;;;;;;;;;;5030793;28;20559;-36
2022/06/23 00:07:54;;;;;;;7.70;4.28;;;;;;;;;;5028778;28;20099;-36
2022/06/23 00:10:28;;;;;;;9.30;3.58;;;;;;;;;;5030836;28;20123;-35
2022/06/23 00:12:54;;;;;;;10.57;2.97;;;;;;;;;;5030330;28;20052;-35
2022/06/23 00:15:26;;;;;;;6.75;2.95;;;;;;;;;;5028549;28;20042;-36
2022/06/23 00:18:01;;;;;;;11.13;3.78;;;;;;;;;;5030087;28;20041;-36
2022/06/23 00:20:32;;;;;;;12.30;4.20;;;;;;;;;;5029953;28;20049;-47
2022/06/23 00:23:19;;;;;;;7.40;3.55;;;;;;;;;;5030807;28;20107;-35
2022/06/23 00:25:44;;;;;;;14.88;3.67;;;;;;;;;;5030119;28;20033;-35
2022/06/23 00:28:23;;;;;;;10.52;3.35;;;;;;;;;;5028254;28;20111;-35
2022/06/23 00:30:53;;;;;;;7.68;3.55;;;;;;;;;;5030461;28;20036;-36
2022/06/23 00:33:21;;;;;;;6.43;3.55;;;;;;;;;;5029382;28;20041;-46
2022/06/23 00:35:48;;;;;;;8.63;3.35;;;;;;;;;;5029903;28;20116;-35
2022/06/23 00:38:22;;;;;;;12.43;4.40;;;;;;;;;;5030135;28;20634;-35
2022/06/23 00:40:49;;;;;;;12.70;5.85;;;;;;;;;;5028962;28;20447;-48
2022/06/23 00:43:14;;;;;;;9.38;4.43;;;;;;;;;;5029571;28;20116;-35
2022/06/23 00:45:49;;;;;;;14.82;4.60;;;;;;;;;;5029731;28;20137;-36
2022/06/23 00:48:21;;;;;;;9.60;4.55;;;;;;;;;;5029767;28;20045;-48
2022/06/23 00:50:47;;;;;;;11.77;4.40;;;;;;;;;;5029852;28;20106;-35
2022/06/23 00:53:13;;;;;;;15.27;4.32;;;;;;;;;;5029862;28;20532;-36
2022/06/23 00:55:38;;;;;;;12.20;4.28;;;;;;;;;;5029412;28;20041;-36
2022/06/23 00:58:07;;;;;;;11.20;4.72;;;;;;;;;;5027875;28;20120;-36
2022/06/23 01:00:36;;;;;;;9.88;4.30;;;;;;;;;;5029141;28;20591;-35
2022/06/23 01:03:25;;;;;;;13.00;4.28;;;;;;;;;;5029060;28;20033;-36
2022/06/23 01:05:50;;;;;;;8.80;4.38;;;;;;;;;;4969924;28;20038;-36
2022/06/23 01:08:16;;;;;;;14.85;6.18;;;;;;;;;;4982378;28;20412;-36
2022/06/23 01:10:44;;;;;;;14.65;3.95;;;;;;;;;;4987647;28;20521;-39
2022/06/23 01:13:21;;;;;;;12.13;4.43;;;;;;;;;;4986818;28;20057;-36
2022/06/23 01:15:47;;;;;;;15.55;5.88;;;;;;;;;;4988094;28;20125;-36
2022/06/23 01:18:25;;;;;;;12.10;5.78;;;;;;;;;;4978870;28;20149;-42
2022/06/23 01:21:02;;;;;;;20.55;6.78;;;;;;;;;;4968543;28;20051;-36
2022/06/23 01:23:42;;;;;;;14.60;5.10;;;;;;;;;;4968395;28;20050;-35
2022/06/23 01:26:27;;;;;;;9.80;4.18;;;;;;;;;;4968578;28;20563;-35
2022/06/23 01:29:04;;;;;;;9.93;4.45;;;;;;;;;;4980906;28;20124;-35
2022/06/23 01:31:36;;;;;;;18.08;5.30;;;;;;;;;;4973161;28;20034;-36
2022/06/23 01:34:07;;;;;;;26.83;7.38;;;;;;;;;;4971390;28;20505;-35
2022/06/23 01:36:36;;;;;;;28.23;7.22;;;;;;;;;;4966155;28;20034;-36
2022/06/23 01:39:04;;;;;;;17.65;6.32;;;;;;;;;;4968239;28;20039;-35
2022/06/23 01:41:38;;;;;;;23.50;6.43;;;;;;;;;;4968326;28;20197;-36
2022/06/23 01:44:06;;;;;;;18.40;5.57;;;;;;;;;;5017960;28;20549;-35
2022/06/23 01:46:36;;;;;;;16.38;6.10;;;;;;;;;;5026999;28;20046;-35
2022/06/23 01:49:21;;;;;;;32.88;6.68;;;;;;;;;;5029141;28;20399;-35
2022/06/23 01:51:48;;;;;;;30.65;7.00;;;;;;;;;;5028922;28;20052;-34
2022/06/23 01:54:20;;;;;;;28.55;6.57;;;;;;;;;;5028221;28;20052;-34
2022/06/23 09:43:44;;;;;;;;;;;;;;;;;;1061044;27;20402;-67
2022/06/23 09:44:15;;;;;;;;;;;;;;;;;;1059125;28;19916;-73
2022/06/23 09:44:46;;;;;;;;;;;;;;;;;;1058159;28;20307;-74
2022/06/23 09:45:16;;;;;;;;;;;;;;;;;;1056880;28;20334;-72
2022/06/23 09:45:48;;;;;;;;;;;;;;;;;;1051351;28;20465;-76
2022/06/23 09:46:18;;;;;;;;;;;;;;;;;;1052770;28;20293;-75
2022/06/23 09:46:50;;;;;;;;;;;;;;;;;;1048912;28;20014;-63
2022/06/23 09:47:21;;;;;;;;;;;;;;;;;;1052246;28;19927;-64
2022/06/23 09:47:51;;;;;;;;;;;;;;;;;;1048366;28;19917;-76
2022/06/23 09:48:22;;;;;;;;;;;;;;;;;;1048688;28;20300;-70
2022/06/23 09:48:53;;;;;;;;;;;;;;;;;;1052715;28;20031;-67
2022/06/23 09:49:24;;;;;;;;;;;;;;;;;;1048314;28;19925;-66
2022/06/23 09:49:54;;;;;;;;;;;;;;;;;;1048255;28;19963;-66
2022/06/23 09:50:25;;;;;;;;;;;;;;;;;;1044119;28;20276;-65
2022/06/23 09:50:55;;;;;;;;;;;;;;;;;;1044202;28;19945;-62
2022/06/23 09:51:26;;;;;;;;;;;;;;;;;;1044021;28;20307;-59
2022/06/23 09:51:57;;;;;;;;;;;;;;;;;;1047922;28;19968;-60
2022/06/23 09:52:27;;;;;;;;;;;;;;;;;;1048219;28;20291;-65
2022/06/23 09:52:58;;;;;;;;;;;;;;;;;;1048453;28;19925;-68
2022/06/23 09:53:28;;;;;;;;;;;;;;;;;;1043797;28;19935;-69
2022/06/23 09:53:59;;;;;;;;;;;;;;;;;;1040028;28;20387;-67
2022/06/23 09:58:40;;;;;;;;;;;;;;;;;;1048741;28;20412;-64
2022/06/23 09:59:10;;;;;;;;;;;;;;;;;;1048638;28;19921;-75
2022/06/23 09:59:41;;;;;;;21.55;7.88;;;;;;;;;;1047993;28;19920;-69
2022/06/23 10:00:12;;;;;;;16.23;4.00;;;;;;;;;;1047854;28;20035;-69
2022/06/23 10:00:49;;;;;;;13.00;3.80;;;;;;;;;;1047958;28;20458;-71
2022/06/23 10:01:25;;;;;;;10.73;3.25;;;;;;;;;;1043681;28;20025;-68
2022/06/23 10:02:14;;;;;;;9.45;3.42;;;;;;;;;;1043415;28;20426;-65
2022/06/23 10:02:46;;;;;;;126.75;114.43;;;;;;;;;;1039284;28;20017;-69
2022/06/23 10:03:35;;;;;;;19.40;10.93;;;;;;;;;;1046639;28;20025;-66
2022/06/23 10:04:11;;;;;;;12.45;4.53;;;;;;;;;;1047408;28;20012;-62
2022/06/23 10:04:42;;;;;;;17.35;2.60;;;;;;;;;;1047652;28;20359;-73
2022/06/23 10:05:19;;;;;;;10.27;4.18;;;;;;;;;;1047778;28;20044;-72
2022/06/23 10:06:09;;;;;;;15.73;12.40;;;;;;;;;;1047930;28;20529;-74
2022/06/23 10:06:45;;;;;;;11.82;5.50;;;;;;;;;;1047736;28;20059;-68
2022/06/23 10:07:16;;;;;;;10.10;4.03;;;;;;;;;;1043597;28;20021;-64
2022/06/23 10:07:47;;;;;;;18.02;7.13;;;;;;;;;;1043459;28;20052;-61
2022/06/23 10:08:18;;;;;;;12.95;6.55;;;;;;;;;;1044496;28;20066;-62
2022/06/23 10:08:55;;;;;;;23.83;18.35;;;;;;;;;;1047570;28;20398;-63
2022/06/23 10:09:44;;;;;;;103.82;94.15;;;;;;;;;;1047893;28;20012;-67
2022/06/23 10:10:15;;;;;;;;;;;;;;;;;;1048262;28;20020;-68
2022/06/23 10:10:46;;;;;;;;;;;;;;;;;;1048214;28;19944;-68
2022/06/23 10:11:18;;;;;;;;;;;;;;;;;;1048211;28;19944;-71
2022/06/23 10:11:49;;;;;;;;;;;;;;;;;;1048964;28;19922;-72
2022/06/23 10:12:20;;;;;;;;;;;;;;;;;;1049193;28;19959;-71
2022/06/23 10:12:50;;;;;;;;;;;;;;;;;;1048783;28;19983;-69
2022/06/23 10:13:21;;;;;;;;;;;;;;;;;;1048613;28;19944;-73
2022/06/23 10:13:51;;;;;;;;;;;;;;;;;;1048459;28;19955;-74
2022/06/23 10:14:22;;;;;;;;;;;;;;;;;;1049215;28;19932;-76
2022/06/23 10:14:52;;;;;;;;;;;;;;;;;;1049212;28;20033;-78
2022/06/23 10:15:23;;;;;;;;;;;;;;;;;;1048898;28;19981;-69
2022/06/23 10:15:54;;;;;;;;;;;;;;;;;;1048302;28;19927;-71
2022/06/23 10:16:25;;;;;;;;;;;;;;;;;;1048259;28;19933;-75
2022/06/23 10:16:56;;;;;;;;;;;;;;;;;;1048906;28;19937;-75
2022/06/23 10:17:26;;;;;;;;;;;;;;;;;;1049085;28;19930;-74
2022/06/23 20:34:13;;;;;;;;;;;;;;;;;;1056105;27;20376;-26
2022/06/23 20:34:44;;;;;;;7.10;2.85;;;;;;;;;;1054389;28;19911;-32
2022/06/23 20:35:21;;;;;;;5.70;3.20;;;;;;;;;;1056432;28;20097;-26
2022/06/23 20:36:11;;;;;;;5.18;3.08;;;;;;;;;;1054482;28;20030;-27
2022/06/23 20:37:00;;;;;;;6.30;3.27;;;;;;;;;;1056334;28;20085;-26
2022/06/23 20:37:30;;;;;;;6.35;3.75;;;;;;;;;;1056623;28;20185;-26
2022/06/23 20:38:01;;;;;;;7.65;3.45;;;;;;;;;;1054467;28;20061;-27
2022/06/23 20:38:41;;;;;;;4.88;3.00;;;;;;;;;;1056545;28;20028;-26
2022/06/23 20:39:20;;;;;;;6.85;3.05;;;;;;;;;;1054446;28;20027;-27
2022/06/23 20:39:57;;;;;;;5.15;3.47;;;;;;;;;;1056511;28;20051;-26
2022/06/23 20:40:36;;;;;;;7.30;3.42;;;;;;;;;;1054451;28;20038;-26
2022/06/23 20:41:17;;;;;;;6.45;3.45;;;;;;;;;;1055136;28;20035;-33
2022/06/23 20:41:56;;;;;;;5.55;3.92;;;;;;;;;;1056472;28;20031;-30
2022/06/23 20:42:37;;;;;;;4.53;2.85;;;;;;;;;;1054447;28;20035;-31
2022/06/23 20:43:10;;;;;;;5.57;3.45;;;;;;;;;;1056324;28;20510;-30
2022/06/23 20:44:19;;;;;;;4.93;3.58;;;;;;;;;;1054257;28;20058;-31
2022/06/23 20:45:09;;;;;;;5.97;3.30;;;;;;;;;;1042656;28;20041;-30
2022/06/23 20:45:42;;;;;;;5.18;3.33;;;;;;;;;;1041322;28;20060;-31
2022/06/23 20:46:26;;;;;;;5.93;3.75;;;;;;;;;;1043500;28;20087;-31
2022/06/23 20:47:23;;;;;;;6.53;3.63;;;;;;;;;;1037673;28;20037;-31
2022/06/23 20:48:12;;;;;;;6.90;3.72;;;;;;;;;;1021089;29;20233;-31
2022/06/23 20:48:58;;;;;;;6.68;3.53;;;;;;;;;;1023068;28;20047;-31
2022/06/23 20:49:47;;;;;;;7.68;4.38;;;;;;;;;;1027101;28;20035;-30
2022/06/23 20:50:21;;;;;;;8.88;2.72;;;;;;;;;;1027250;28;20082;-30
2022/06/23 20:51:06;;;;;;;7.50;3.90;;;;;;;;;;1025081;28;20097;-32
2022/06/23 20:51:45;;;;;;;5.65;2.80;;;;;;;;;;1027043;28;20078;-31
2022/06/23 20:52:28;;;;;;;5.90;3.25;;;;;;;;;;1025545;28;20513;-29
2022/06/23 20:53:02;;;;;;;5.10;2.85;;;;;;;;;;1025161;28;20050;-32
2022/06/23 20:53:51;;;;;;;6.47;3.33;;;;;;;;;;1027166;28;20046;-30
2022/06/23 20:54:44;;;;;;;7.68;3.75;;;;;;;;;;1025067;28;20042;-30
2022/06/23 20:55:15;;;;;;;6.60;3.60;;;;;;;;;;1015019;28;20032;-30
2022/06/23 20:55:58;;;;;;;8.02;4.22;;;;;;;;;;1027045;28;20113;-31
2022/06/23 20:56:36;;;;;;;5.93;3.95;;;;;;;;;;1025051;28;20054;-31
2022/06/23 20:57:10;;;;;;;5.90;3.53;;;;;;;;;;1026619;28;20039;-34
2022/06/23 20:57:52;;;;;;;5.60;3.03;;;;;;;;;;1026387;28;20037;-30
2022/06/23 20:58:35;;;;;;;5.32;2.72;;;;;;;;;;1025047;28;20046;-29
2022/06/23 20:59:11;;;;;;;6.70;3.95;;;;;;;;;;1027260;28;20031;-29
2022/06/23 20:59:44;;;;;;;5.05;2.95;;;;;;;;;;1024893;28;20046;-30
2022/06/23 21:00:17;;;;;;;8.30;3.65;;;;;;;;;;1027191;28;20421;-29
2022/06/23 21:00:54;;;;;;;5.57;3.67;;;;;;;;;;1024572;28;20438;-30
2022/06/23 21:01:30;;;;;;;9.40;3.78;;;;;;;;;;1026367;28;20027;-33
2022/06/23 21:02:01;;;;;;;6.40;3.42;;;;;;;;;;1027029;28;20042;-30
2022/06/23 21:02:37;;;;;;;7.03;3.47;;;;;;;;;;1025560;28;20042;-34
2022/06/23 21:03:08;;;;;;;7.30;3.65;;;;;;;;;;1027228;28;20039;-30
2022/06/23 21:03:47;;;;;;;8.10;4.07;;;;;;;;;;1025040;28;20031;-32
2022/06/23 21:04:24;;;;;;;6.15;3.63;;;;;;;;;;1027183;28;20027;-30
2022/06/23 21:04:54;;;;;;;10.88;3.78;;;;;;;;;;1025025;28;20043;-31
2022/06/23 21:05:43;;;;;;;7.30;3.22;;;;;;;;;;1027143;28;20043;-30
2022/06/23 21:06:26;;;;;;;8.27;3.70;;;;;;;;;;1026108;28;20055;-30
2022/06/23 21:06:57;;;;;;;6.85;3.33;;;;;;;;;;1024954;28;20023;-31
2022/06/23 21:07:30;;;;;;;6.20;3.67;;;;;;;;;;1027124;28;20038;-30
2022/06/23 21:08:01;;;;;;;6.13;3.85;;;;;;;;;;1024871;28;20446;-32
2022/06/23 21:08:35;;;;;;;6.45;4.10;;;;;;;;;;1027100;28;20042;-30
2022/06/23 21:09:22;;;;;;;5.88;3.58;;;;;;;;;;1024984;28;20541;-31
2022/06/23 21:10:05;;;;;;;6.30;3.88;;;;;;;;;;1026876;28;20411;-30
2022/06/23 21:10:47;;;;;;;8.40;3.67;;;;;;;;;;1027138;28;20500;-30
2022/06/23 21:11:21;;;;;;;6.20;3.75;;;;;;;;;;1025053;28;20043;-30
2022/06/23 21:12:05;;;;;;;5.43;3.15;;;;;;;;;;1027180;28;20038;-29
2022/06/23 21:12:43;;;;;;;6.72;4.35;;;;;;;;;;1024719;28;20561;-30
2022/06/23 21:13:19;;;;;;;5.53;3.13;;;;;;;;;;1025511;28;20430;-33
2022/06/23 21:14:01;;;;;;;7.80;3.15;;;;;;;;;;1027076;28;20035;-30
2022/06/23 21:14:34;;;;;;;4.20;2.72;;;;;;;;;;1024981;28;20064;-30
2022/06/23 21:15:05;;;;;;;5.80;3.30;;;;;;;;;;1027164;28;20057;-31
2022/06/23 21:15:54;;;;;;;7.05;3.50;;;;;;;;;;1025017;28;20386;-30
2022/06/23 21:16:24;;;;;;;5.70;3.13;;;;;;;;;;1025974;28;20160;-33
2022/06/23 21:17:03;;;;;;;8.25;4.30;;;;;;;;;;1042110;28;20201;-29
2022/06/23 21:17:42;;;;;;;7.10;3.30;;;;;;;;;;1041287;28;20025;-31
2022/06/23 21:18:13;;;;;;;6.47;3.75;;;;;;;;;;1043435;28;20029;-31
2022/06/23 21:18:56;;;;;;;7.72;2.97;;;;;;;;;;1041027;28;20037;-30
2022/06/23 21:19:37;;;;;;;4.20;2.72;;;;;;;;;;1043340;28;20040;-25
2022/06/23 21:20:13;;;;;;;4.63;3.10;;;;;;;;;;1042416;28;20060;-25
2022/06/23 21:20:53;;;;;;;6.93;3.22;;;;;;;;;;1041524;28;20033;-34
2022/06/23 21:21:43;;;;;;;5.00;2.78;;;;;;;;;;1043273;28;20036;-27
2022/06/23 21:22:14;;;;;;;8.90;4.07;;;;;;;;;;1041594;28;20494;-26
2022/06/23 21:22:54;;;;;;;5.90;3.65;;;;;;;;;;1043007;28;20123;-26
2022/06/23 21:23:24;;;;;;;6.85;3.25;;;;;;;;;;1043355;28;20025;-25
2022/06/23 21:24:03;;;;;;;7.97;3.90;;;;;;;;;;1041868;28;20108;-32
2022/06/23 21:24:39;;;;;;;6.53;3.38;;;;;;;;;;1043284;28;20118;-28
2022/06/23 21:25:10;;;;;;;5.35;2.80;;;;;;;;;;1041092;28;20056;-26
2022/06/23 21:25:44;;;;;;;6.78;3.28;;;;;;;;;;1046320;28;20515;-25
2022/06/23 21:26:22;;;;;;;8.98;3.85;;;;;;;;;;1050017;28;20024;-26
2022/06/23 21:27:10;;;;;;;8.23;3.70;;;;;;;;;;1051971;28;20024;-25
2022/06/23 21:27:59;;;;;;;7.88;3.00;;;;;;;;;;1052160;28;20063;-26
2022/06/23 21:28:39;;;;;;;7.53;3.50;;;;;;;;;;1049985;28;20044;-26
2022/06/23 21:29:13;;;;;;;5.05;3.13;;;;;;;;;;1051961;28;20028;-25
2022/06/23 21:29:58;;;;;;;6.03;3.50;;;;;;;;;;1050743;28;20379;-26
2022/06/23 21:30:40;;;;;;;7.30;3.80;;;;;;;;;;1049922;28;20093;-26
2022/06/23 21:31:15;;;;;;;7.25;4.10;;;;;;;;;;1051911;28;20036;-26
2022/06/23 21:31:49;;;;;;;6.47;3.15;;;;;;;;;;1049966;28;20078;-26
2022/06/23 21:32:23;;;;;;;5.38;2.85;;;;;;;;;;1051992;28;20478;-25
2022/06/23 21:32:57;;;;;;;5.95;3.35;;;;;;;;;;1049986;28;20044;-26
2022/06/23 21:33:31;;;;;;;7.68;3.78;;;;;;;;;;1051927;28;20089;-27
2022/06/23 21:34:22;;;;;;;4.60;3.13;;;;;;;;;;1042077;28;20061;-26
2022/06/23 21:34:53;;;;;;;5.78;3.17;;;;;;;;;;1041754;28;20699;-25
2022/06/23 21:35:29;;;;;;;6.28;3.70;;;;;;;;;;1043654;28;20045;-26
2022/06/23 21:36:03;;;;;;;5.10;2.97;;;;;;;;;;1041726;28;20037;-26
2022/06/23 21:36:38;;;;;;;10.50;4.60;;;;;;;;;;1043816;28;20036;-26
2022/06/23 21:37:09;;;;;;;5.45;3.58;;;;;;;;;;1041740;28;20025;-26
2022/06/23 21:37:44;;;;;;;5.55;3.22;;;;;;;;;;1043676;28;20033;-25
2022/06/23 21:38:15;;;;;;;4.75;2.80;;;;;;;;;;1041632;28;20033;-26
2022/06/23 21:38:46;;;;;;;5.72;3.33;;;;;;;;;;1043655;28;20017;-25
2022/06/23 21:39:19;;;;;;;6.80;3.42;;;;;;;;;;1041597;28;20389;-27
2022/06/23 21:39:54;;;;;;;6.18;3.47;;;;;;;;;;1043788;28;20479;-26
2022/06/23 21:40:27;;;;;;;4.88;3.00;;;;;;;;;;1042056;28;20091;-26
2022/06/23 21:41:02;;;;;;;6.03;3.40;;;;;;;;;;1043482;28;20036;-32
2022/06/23 21:41:33;;;;;;;5.75;3.80;;;;;;;;;;1042981;28;20032;-25
2022/06/23 21:42:30;;;;;;;7.55;3.88;;;;;;;;;;1043110;28;20143;-32
2022/06/23 21:43:01;;;;;;;6.43;3.38;;;;;;;;;;1041668;28;20037;-25
2022/06/23 21:43:38;;;;;;;7.68;4.22;;;;;;;;;;1041489;28;20081;-26
2022/06/23 21:44:13;;;;;;;5.70;3.83;;;;;;;;;;1043677;28;20059;-29
2022/06/23 21:45:06;;;;;;;5.07;3.22;;;;;;;;;;1046053;28;20410;-25
2022/06/23 21:45:40;;;;;;;7.80;4.63;;;;;;;;;;1042560;28;20033;-24
2022/06/23 21:46:16;;;;;;;5.53;3.20;;;;;;;;;;1045133;28;20036;-25
2022/06/23 21:46:54;;;;;;;6.63;3.22;;;;;;;;;;1043084;28;20029;-26
2022/06/23 21:47:27;;;;;;;5.82;3.35;;;;;;;;;;1044515;28;20039;-34
2022/06/23 21:48:06;;;;;;;4.85;3.20;;;;;;;;;;1044068;28;20348;-26
2022/06/23 21:48:37;;;;;;;5.45;3.78;;;;;;;;;;1042968;28;20036;-27
2022/06/23 21:49:18;;;;;;;5.93;3.33;;;;;;;;;;1045050;28;20068;-27
2022/06/23 21:50:05;;;;;;;6.43;3.75;;;;;;;;;;1042965;28;20091;-27
2022/06/23 21:50:55;;;;;;;7.82;4.20;;;;;;;;;;1044723;28;20029;-28
2022/06/23 21:51:28;;;;;;;5.35;3.08;;;;;;;;;;1032054;28;95733;-21
2022/06/23 21:52:02;;;;;;;5.82;2.50;;;;;;;;;;1042811;28;20048;-22
2022/06/23 21:52:38;;;;;;;7.47;3.38;;;;;;;;;;1045065;28;20032;-22
2022/06/23 21:53:15;;;;;;;4.97;3.20;;;;;;;;;;1042916;28;20031;-20
2022/06/23 21:53:48;;;;;;;5.70;3.10;;;;;;;;;;1045007;28;20025;-22
2022/06/23 21:54:34;;;;;;;5.45;3.30;;;;;;;;;;1043201;28;20044;-21
2022/06/23 21:55:11;;;;;;;5.10;3.30;;;;;;;;;;1043049;28;20451;-22
2022/06/23 21:56:00;;;;;;;6.38;3.17;;;;;;;;;;1045145;28;20040;-21
2022/06/23 21:56:51;;;;;;;5.22;3.17;;;;;;;;;;1043913;28;20048;-21
2022/06/23 21:57:26;;;;;;;4.13;2.67;;;;;;;;;;1042652;28;20146;-23
2022/06/23 21:58:15;;;;;;;4.10;3.05;;;;;;;;;;1044733;28;20055;-21
2022/06/23 21:58:55;;;;;;;6.53;3.27;;;;;;;;;;1045019;28;20098;-21
2022/06/23 21:59:45;;;;;;;8.55;2.97;;;;;;;;;;1042976;28;20028;-19
2022/06/23 22:00:20;;;;;;;7.32;3.13;;;;;;;;;;1044210;28;20041;-28
2022/06/23 22:00:52;;;;;;;7.38;3.05;;;;;;;;;;1045048;28;20052;-21
2022/06/23 22:01:32;;;;;;;5.00;2.40;;;;;;;;;;1043319;28;20036;-27
2022/06/23 22:02:09;;;;;;;7.35;2.72;;;;;;;;;;1045109;28;20048;-21
2022/06/23 22:02:52;;;;;;;5.93;3.17;;;;;;;;;;1042923;28;20037;-20
2022/06/23 22:03:42;;;;;;;5.43;3.50;;;;;;;;;;1044852;28;20017;-21
2022/06/23 22:04:22;;;;;;;5.75;3.00;;;;;;;;;;1045148;28;20028;-20
2022/06/23 22:04:53;;;;;;;4.65;3.05;;;;;;;;;;1042904;28;20025;-21
2022/06/23 22:05:35;;;;;;;7.50;3.25;;;;;;;;;;1045033;28;20036;-20
2022/06/23 22:06:21;;;;;;;5.63;3.50;;;;;;;;;;1043160;28;20393;-21
2022/06/23 22:07:09;;;;;;;6.80;3.33;;;;;;;;;;1042929;28;20052;-20
2022/06/23 22:07:45;;;;;;;4.35;2.60;;;;;;;;;;1044813;28;20040;-20
2022/06/23 22:08:22;;;;;;;6.18;2.80;;;;;;;;;;1044135;28;20032;-19
2022/06/23 22:09:05;;;;;;;5.88;3.47;;;;;;;;;;1043168;28;20047;-26
2022/06/23 22:09:40;;;;;;;6.78;2.72;;;;;;;;;;1045019;28;20028;-19
2022/06/23 22:10:16;;;;;;;4.60;3.40;;;;;;;;;;1042897;28;20036;-20
2022/06/23 22:10:47;;;;;;;4.95;3.10;;;;;;;;;;1044869;28;20490;-21
2022/06/23 22:11:22;;;;;;;5.97;3.40;;;;;;;;;;1042919;28;20107;-20
2022/06/23 22:11:52;;;;;;;5.95;2.88;;;;;;;;;;1044936;28;20036;-21
2022/06/23 22:12:25;;;;;;;6.10;2.55;;;;;;;;;;1042847;28;20064;-21
2022/06/23 22:13:02;;;;;;;6.75;3.60;;;;;;;;;;1044836;28;20045;-21
2022/06/23 22:13:33;;;;;;;8.77;4.13;;;;;;;;;;1042886;28;20029;-20
2022/06/23 22:14:12;;;;;;;8.00;3.33;;;;;;;;;;1044780;28;20492;-20
2022/06/23 22:14:44;;;;;;;5.83;3.03;;;;;;;;;;1044521;28;20044;-19
2022/06/23 22:15:14;;;;;;;4.78;2.90;;;;;;;;;;1043927;28;20255;-27
2022/06/23 22:15:47;;;;;;;5.93;3.05;;;;;;;;;;1043950;28;20041;-21
2022/06/23 22:16:20;;;;;;;5.90;3.45;;;;;;;;;;1044247;28;20369;-26
2022/06/23 22:16:53;;;;;;;7.22;3.08;;;;;;;;;;1043819;28;20055;-22
2022/06/23 22:17:24;;;;;;;5.97;3.03;;;;;;;;;;1043668;28;20036;-27
2022/06/23 22:17:55;;;;;;;6.60;3.33;;;;;;;;;;1044134;28;20079;-20
2022/06/23 22:18:32;;;;;;;6.45;3.33;;;;;;;;;;1044203;28;20557;-28
2022/06/23 22:19:05;;;;;;;7.40;3.65;;;;;;;;;;1044872;28;20403;-20
2022/06/23 22:19:45;;;;;;;8.82;4.13;;;;;;;;;;1042944;28;20498;-22
2022/06/23 22:20:25;;;;;;;5.90;3.08;;;;;;;;;;1045058;28;20479;-19
2022/06/23 22:21:25;;;;;;;7.32;3.83;;;;;;;;;;1042867;28;20036;-21
2022/06/23 22:22:00;;;;;;;4.78;3.00;;;;;;;;;;1042946;28;20045;-20
2022/06/23 22:22:33;;;;;;;7.70;3.70;;;;;;;;;;1044941;28;20047;-21
2022/06/23 22:23:26;;;;;;;5.07;2.97;;;;;;;;;;1042801;28;20484;-21
2022/06/23 22:26:06;;;;;;;5.40;2.92;;;;;;;;;;1044814;28;20032;-21
2022/06/23 22:26:36;;;;;;;5.57;3.38;;;;;;;;;;1044924;28;20396;-21
2022/06/23 22:27:09;;;;;;;5.40;2.50;;;;;;;;;;1042879;28;20037;-21
2022/06/23 22:27:49;;;;;;;5.55;3.08;;;;;;;;;;1044715;28;20041;-21
2022/06/23 22:28:20;;;;;;;4.90;3.33;;;;;;;;;;1042864;28;20427;-20
2022/06/23 22:29:09;;;;;;;5.93;2.97;;;;;;;;;;1044974;28;20048;-21
2022/06/23 22:29:42;;;;;;;8.00;4.00;;;;;;;;;;1043675;28;20067;-21
2022/06/23 22:30:26;;;;;;;4.60;2.47;;;;;;;;;;1043335;28;20036;-25
2022/06/23 22:30:58;;;;;;;5.82;3.33;;;;;;;;;;1044737;28;20032;-21
2022/06/23 22:32:07;;;;;;;7.70;3.83;;;;;;;;;;1042598;28;20040;-21
2022/06/23 22:32:56;;;;;;;8.52;3.75;;;;;;;;;;1022079;29;20054;-20
2022/06/23 22:33:27;;;;;;;5.80;3.63;;;;;;;;;;1022825;29;20066;-27
2022/06/23 22:34:02;;;;;;;6.90;3.35;;;;;;;;;;1023453;28;20114;-21
2022/06/23 22:34:40;;;;;;;5.50;3.22;;;;;;;;;;1025577;28;20387;-26
2022/06/23 22:35:26;;;;;;;5.45;3.35;;;;;;;;;;1028186;28;20398;-21
2022/06/23 22:36:11;;;;;;;6.75;3.92;;;;;;;;;;1025905;28;20513;-21
2022/06/23 22:36:43;;;;;;;6.70;3.03;;;;;;;;;;1026163;28;20054;-28
2022/06/23 22:37:14;;;;;;;5.40;3.00;;;;;;;;;;1028177;28;20470;-21
2022/06/23 22:37:46;;;;;;;7.57;3.65;;;;;;;;;;1026619;28;20110;-28
2022/06/23 22:38:23;;;;;;;5.10;3.15;;;;;;;;;;1028035;28;20031;-20
2022/06/23 22:38:59;;;;;;;9.00;4.18;;;;;;;;;;1026081;28;20030;-21
2022/06/23 22:39:33;;;;;;;5.82;3.03;;;;;;;;;;1028228;28;20035;-21
2022/06/23 22:40:05;;;;;;;4.82;3.35;;;;;;;;;;1025888;28;20521;-21
2022/06/23 22:40:56;;;;;;;5.40;3.30;;;;;;;;;;1028106;28;20474;-21
2022/06/23 22:41:47;;;;;;;7.07;2.95;;;;;;;;;;1027160;28;20019;-20
2022/06/23 22:42:19;;;;;;;8.05;3.63;;;;;;;;;;1020788;28;20190;-20
2022/06/23 22:43:08;;;;;;;5.43;3.10;;;;;;;;;;1024010;29;20126;-21
2022/06/23 22:43:40;;;;;;;6.88;3.28;;;;;;;;;;1024002;29;20043;-20
2022/06/23 22:44:28;;;;;;;7.20;3.50;;;;;;;;;;1022031;29;20035;-25
2022/06/23 22:44:59;;;;;;;7.35;3.90;;;;;;;;;;1024110;29;20031;-21
2022/06/23 22:45:45;;;;;;;5.47;3.22;;;;;;;;;;1021981;29;20047;-21
2022/06/23 22:46:17;;;;;;;6.00;3.75;;;;;;;;;;1022903;29;20047;-21
2022/06/23 22:47:06;;;;;;;7.15;3.50;;;;;;;;;;1023331;29;20035;-22
2022/06/23 22:47:41;;;;;;;5.85;3.42;;;;;;;;;;1022007;29;20039;-20
2022/06/23 22:48:24;;;;;;;4.80;3.25;;;;;;;;;;1023915;29;20046;-22
2022/06/23 22:48:54;;;;;;;5.72;3.38;;;;;;;;;;1022333;29;20035;-21
2022/06/23 22:49:32;;;;;;;7.03;3.17;;;;;;;;;;1024148;29;20031;-22
2022/06/23 22:50:12;;;;;;;5.40;3.22;;;;;;;;;;1023925;29;20509;-19
2022/06/23 22:50:42;;;;;;;6.20;3.22;;;;;;;;;;1021767;29;20030;-18
2022/06/23 22:51:31;;;;;;;8.07;3.30;;;;;;;;;;1024118;29;20034;-18
2022/06/23 22:52:25;;;;;;;5.97;3.55;;;;;;;;;;1023973;29;20130;-19
2022/06/23 22:53:24;;;;;;;6.20;3.60;;;;;;;;;;1024032;29;20130;-19
2022/06/23 22:54:30;;;;;;;5.80;3.05;;;;;;;;;;1022084;29;20482;-19
2022/06/23 22:55:19;;;;;;;5.93;3.42;;;;;;;;;;1022973;29;20212;-19
2022/06/23 22:56:28;;;;;;;6.70;4.13;;;;;;;;;;1021932;29;20126;-19
2022/06/23 22:57:44;;;;;;;5.95;3.55;;;;;;;;;;1021474;29;20030;-19
2022/06/23 22:58:36;;;;;;;8.00;3.88;;;;;;;;;;1007528;29;20048;-20
2022/06/23 22:59:28;;;;;;;5.57;3.72;;;;;;;;;;1006387;29;20100;-20
2022/06/23 23:00:18;;;;;;;6.25;3.35;;;;;;;;;;1006107;29;20115;-20
2022/06/23 23:01:09;;;;;;;5.63;3.28;;;;;;;;;;1008234;29;20032;-21
2022/06/23 23:02:01;;;;;;;7.30;4.28;;;;;;;;;;1008230;29;20031;-21
2022/06/23 23:02:50;;;;;;;7.25;3.50;;;;;;;;;;1007502;29;20032;-21
2022/06/23 23:03:39;;;;;;;5.72;3.75;;;;;;;;;;1006392;29;20141;-19
2022/06/23 23:04:34;;;;;;;9.17;4.17;;;;;;;;;;1017932;28;20182;-23
2022/06/23 23:05:28;;;;;;;5.50;3.53;;;;;;;;;;1027868;28;20795;-19
2022/06/23 23:06:20;;;;;;;6.55;3.97;;;;;;;;;;1027861;28;20061;-19
2022/06/23 23:07:20;;;;;;;8.13;4.25;;;;;;;;;;1027646;28;20117;-20
2022/06/23 23:08:22;;;;;;;6.22;3.80;;;;;;;;;;1026545;28;20037;-19
2022/06/23 23:08:54;;;;;;;7.95;4.57;;;;;;;;;;1021983;29;20403;-20
2022/06/23 23:09:25;;;;;;;7.35;3.90;;;;;;;;;;1023781;29;20035;-19
2022/06/23 23:09:57;;;;;;;6.28;4.03;;;;;;;;;;1021731;29;20023;-18
2022/06/23 23:10:28;;;;;;;5.85;3.35;;;;;;;;;;1024417;28;20027;-19
2022/06/23 23:10:59;;;;;;;7.80;3.97;;;;;;;;;;1025848;28;20030;-19
2022/06/23 23:11:36;;;;;;;6.90;3.88;;;;;;;;;;1027822;28;20047;-19
2022/06/23 23:12:11;;;;;;;7.63;4.35;;;;;;;;;;1025836;28;20035;-18
2022/06/23 23:12:44;;;;;;;5.28;3.22;;;;;;;;;;1028070;28;20035;-18
2022/06/23 23:13:26;;;;;;;5.68;3.17;;;;;;;;;;1025896;28;20470;-19
2022/06/23 23:13:57;;;;;;;6.45;3.65;;;;;;;;;;1027902;28;20046;-21
2022/06/23 23:14:37;;;;;;;6.15;3.90;;;;;;;;;;1025810;28;20066;-19
2022/06/23 23:15:18;;;;;;;5.80;4.00;;;;;;;;;;1027180;28;20465;-25
2022/06/23 23:15:54;;;;;;;7.07;3.63;;;;;;;;;;1027760;28;20043;-19
2022/06/23 23:16:33;;;;;;;7.10;4.15;;;;;;;;;;1025725;28;20043;-19
2022/06/23 23:17:04;;;;;;;7.63;4.50;;;;;;;;;;1028135;28;20045;-19
2022/06/23 23:17:35;;;;;;;8.02;3.80;;;;;;;;;;1025651;28;20050;-20
2022/06/23 23:18:11;;;;;;;6.85;4.28;;;;;;;;;;1027860;28;20409;-19
2022/06/23 23:18:44;;;;;;;7.70;3.55;;;;;;;;;;1025928;28;20031;-19
2022/06/23 23:19:15;;;;;;;5.50;3.45;;;;;;;;;;1028032;28;20113;-18
2022/06/23 23:19:48;;;;;;;6.55;4.00;;;;;;;;;;1025673;28;20891;-19
2022/06/23 23:20:19;;;;;;;6.47;3.95;;;;;;;;;;1027764;28;20517;-19
2022/06/23 23:21:02;;;;;;;7.53;4.07;;;;;;;;;;1025740;28;20041;-19
2022/06/23 23:21:33;;;;;;;7.25;4.05;;;;;;;;;;1027425;28;20046;-21
2022/06/23 23:22:15;;;;;;;8.98;4.28;;;;;;;;;;1026361;28;20437;-19
2022/06/23 23:22:47;;;;;;;5.90;3.05;;;;;;;;;;1025928;28;20047;-19
2022/06/23 23:23:23;;;;;;;5.82;3.95;;;;;;;;;;1027977;28;20494;-19
2022/06/23 23:23:55;;;;;;;5.80;3.60;;;;;;;;;;1025745;28;20046;-20
2022/06/23 23:24:30;;;;;;;5.38;3.60;;;;;;;;;;1027933;28;20086;-19
2022/06/23 23:25:02;;;;;;;5.88;3.50;;;;;;;;;;1025771;28;20023;-19
2022/06/23 23:25:33;;;;;;;7.28;3.72;;;;;;;;;;1028071;28;20031;-19
2022/06/23 23:26:22;;;;;;;6.72;3.95;;;;;;;;;;1025524;28;20034;-18
2022/06/23 23:26:54;;;;;;;5.07;3.28;;;;;;;;;;1027591;28;20043;-26
2022/06/23 23:27:24;;;;;;;6.78;3.50;;;;;;;;;;1026673;28;20031;-19
2022/06/23 23:28:08;;;;;;;6.70;4.25;;;;;;;;;;1027774;28;20042;-22